Time;durP1;ratioP1;P1;durP2;ratioP2;P2;SDS_P1;SDS_P2;PMS_P1;PMS_P2;Temp;Humidity;BMP_temperature;BMP_pressure;BME280_temperature;BME280_humidity;BME280_pressure;Samples;Min_cycle;Max_cycle;Signal;HPM_P1;HPM_P2
2021/06/24 00:01:15;;;;;;;1.92;1.83;;;28.10;54.10;;;;;;5068849;28;20110;-73
2021/06/24 00:03:42;;;;;;;3.13;2.30;;;28.00;54.00;;;;;;5069478;28;20053;-73
2021/06/24 00:06:10;;;;;;;2.70;2.50;;;28.00;54.00;;;;;;5069155;28;20052;-73
2021/06/24 00:08:37;;;;;;;4.45;2.85;;;28.00;54.00;;;;;;5069433;28;20049;-73
2021/06/24 00:11:06;;;;;;;4.28;2.90;;;28.00;54.00;;;;;;5085416;28;20163;-73
2021/06/24 00:13:34;;;;;;;2.40;2.20;;;28.00;54.00;;;;;;5087394;28;20076;-73
2021/06/24 00:16:02;;;;;;;2.63;2.42;;;28.00;54.00;;;;;;5068843;28;20147;-73
2021/06/24 00:18:29;;;;;;;2.50;2.30;;;28.00;54.00;;;;;;5068944;28;20059;-73
2021/06/24 00:20:57;;;;;;;2.45;2.25;;;28.00;54.00;;;;;;5083564;28;20562;-73
2021/06/24 00:23:24;;;;;;;2.22;1.98;;;28.00;54.00;;;;;;5087709;28;20079;-73
2021/06/24 00:25:52;;;;;;;2.60;2.40;;;28.00;54.00;;;;;;5089039;28;20154;-73
2021/06/24 00:28:22;;;;;;;2.30;2.10;;;28.00;54.00;;;;;;5088749;28;20044;-73
2021/06/24 00:30:51;;;;;;;2.63;2.47;;;28.00;54.10;;;;;;5074496;28;20135;-73
2021/06/24 00:33:20;;;;;;;2.30;2.17;;;28.00;54.10;;;;;;5068655;28;20101;-73
2021/06/24 00:35:47;;;;;;;2.60;2.40;;;28.00;54.10;;;;;;5068744;28;20796;-73
2021/06/24 00:38:15;;;;;;;2.47;2.10;;;28.00;54.10;;;;;;5074191;28;20131;-73
2021/06/24 00:40:43;;;;;;;3.03;2.78;;;28.00;54.10;;;;;;5088470;28;20052;-73
2021/06/24 00:43:13;;;;;;;2.58;2.38;;;28.00;54.10;;;;;;5087456;28;20131;-73
2021/06/24 00:45:40;;;;;;;;;;;28.00;54.10;;;;;;5088987;28;20134;-73
2021/06/24 00:48:09;;;;;;;2.10;1.95;;;28.00;54.10;;;;;;5086751;28;20058;-73
2021/06/24 00:50:38;;;;;;;3.17;2.85;;;28.00;54.10;;;;;;5087471;28;20138;-73
2021/06/24 00:53:06;;;;;;;3.17;2.85;;;28.00;54.10;;;;;;5087513;28;20499;-73
2021/06/24 00:55:40;;;;;;;2.53;2.33;;;28.00;54.10;;;;;;5086989;28;20044;-73
2021/06/24 00:58:20;;;;;;;2.55;2.35;;;28.00;54.10;;;;;;5072900;28;20058;-73
2021/06/24 01:00:58;;;;;;;2.58;2.38;;;28.00;54.10;;;;;;5080444;28;20127;-74
2021/06/24 01:03:26;;;;;;;2.65;2.30;;;28.00;54.10;;;;;;5088471;28;20448;-73
2021/06/24 01:05:53;;;;;;;3.38;1.90;;;27.90;54.00;;;;;;5087788;28;20126;-73
2021/06/24 01:08:23;;;;;;;2.72;2.53;;;27.90;54.10;;;;;;5071089;28;20083;-73
2021/06/24 01:10:52;;;;;;;3.17;2.40;;;27.90;54.00;;;;;;5050624;28;20480;-73
2021/06/24 01:13:19;;;;;;;2.20;2.10;;;27.90;54.10;;;;;;5067401;28;20040;-73
2021/06/24 01:15:47;;;;;;;2.85;2.60;;;27.90;54.10;;;;;;5067866;28;20147;-73
2021/06/24 01:18:14;;;;;;;2.80;2.40;;;27.90;54.10;;;;;;5083511;28;20101;-73
2021/06/24 01:20:41;;;;;;;2.65;2.08;;;27.90;54.10;;;;;;5087945;28;20109;-73
2021/06/24 01:23:09;;;;;;;2.25;2.10;;;27.90;54.10;;;;;;5088085;28;20098;-73
2021/06/24 01:25:36;;;;;;;2.20;2.00;;;27.90;54.10;;;;;;5087676;28;20133;-73
2021/06/24 01:28:07;;;;;;;2.30;2.10;;;27.90;54.10;;;;;;5074421;28;20045;-72
2021/06/24 01:30:40;;;;;;;2.38;2.17;;;27.90;54.10;;;;;;5067001;28;20521;-73
2021/06/24 01:33:13;;;;;;;2.30;2.20;;;27.90;54.10;;;;;;5067945;28;20052;-73
2021/06/24 01:35:40;;;;;;;2.60;2.40;;;27.90;54.10;;;;;;5067278;28;20075;-73
2021/06/24 01:38:09;;;;;;;2.47;2.17;;;27.90;54.10;;;;;;5081384;28;20094;-73
2021/06/24 01:40:37;;;;;;;2.50;2.30;;;27.90;54.10;;;;;;5087630;28;20098;-73
2021/06/24 01:43:25;;;;;;;2.30;2.13;;;27.90;54.10;;;;;;5087691;28;20091;-73
2021/06/24 01:45:56;;;;;;;2.60;2.40;;;27.90;54.10;;;;;;5078035;28;20076;-73
2021/06/24 01:48:26;;;;;;;2.20;2.00;;;27.90;54.10;;;;;;5066150;28;20090;-73
2021/06/24 01:50:54;;;;;;;;;;;27.90;54.10;;;;;;5067582;28;20127;-73
2021/06/24 01:53:21;;;;;;;2.28;2.08;;;27.90;54.10;;;;;;5067035;28;20007;-73
2021/06/24 01:55:49;;;;;;;2.50;2.30;;;27.90;54.10;;;;;;5068623;28;20123;-73
2021/06/24 01:58:21;;;;;;;3.10;2.45;;;27.90;54.20;;;;;;5086536;28;20176;-73
2021/06/24 02:00:50;;;;;;;2.25;2.05;;;27.80;54.10;;;;;;5087033;28;20079;-73
2021/06/24 02:03:19;;;;;;;2.55;2.35;;;27.90;54.10;;;;;;5087386;28;20374;-73
2021/06/24 02:05:49;;;;;;;2.38;2.17;;;27.80;54.10;;;;;;5084542;28;20080;-73
2021/06/24 02:08:22;;;;;;;2.00;1.90;;;27.90;54.20;;;;;;5067352;28;20110;-73
2021/06/24 02:10:50;;;;;;;2.70;2.50;;;27.90;54.20;;;;;;5066183;28;20048;-73
2021/06/24 02:13:17;;;;;;;2.60;2.40;;;27.80;54.10;;;;;;5066964;28;20040;-73
2021/06/24 02:15:44;;;;;;;2.75;2.42;;;27.90;54.20;;;;;;5068499;28;20076;-73
2021/06/24 02:18:12;;;;;;;3.53;2.72;;;27.90;54.10;;;;;;5087191;28;20044;-72
2021/06/24 02:20:41;;;;;;;2.95;2.28;;;27.90;54.10;;;;;;5085579;28;20131;-73
2021/06/24 02:23:12;;;;;;;2.60;2.40;;;27.90;54.10;;;;;;5087891;28;20126;-73
2021/06/24 02:25:42;;;;;;;2.60;2.40;;;27.90;54.10;;;;;;5089933;28;20135;-73
2021/06/24 02:28:12;;;;;;;2.40;2.20;;;27.80;54.00;;;;;;5053592;28;20044;-73
2021/06/24 02:30:39;;;;;;;2.65;2.28;;;27.90;54.10;;;;;;5075453;28;20486;-73
2021/06/24 02:33:09;;;;;;;2.33;2.13;;;27.80;54.00;;;;;;5090871;28;20055;-73
2021/06/24 02:35:38;;;;;;;3.95;2.75;;;27.80;54.10;;;;;;5090807;28;20051;-73
2021/06/24 02:38:07;;;;;;;2.47;2.33;;;27.80;54.10;;;;;;5071452;28;20055;-73
2021/06/24 02:40:34;;;;;;;2.95;2.53;;;27.80;54.10;;;;;;5070586;28;20131;-73
2021/06/24 02:43:01;;;;;;;2.13;2.00;;;27.80;54.10;;;;;;5070983;28;20099;-73
2021/06/24 02:45:30;;;;;;;2.22;1.98;;;27.80;54.10;;;;;;5069739;28;20053;-73
2021/06/24 02:47:58;;;;;;;2.10;2.00;;;27.80;54.10;;;;;;5089582;28;20058;-73
2021/06/24 02:50:25;;;;;;;2.55;2.13;;;27.80;54.10;;;;;;5089747;28;20051;-73
2021/06/24 02:52:53;;;;;;;1.77;1.67;;;27.80;54.10;;;;;;5090679;28;20062;-73
2021/06/24 02:55:22;;;;;;;2.17;1.98;;;27.80;54.10;;;;;;5079048;28;20124;-73
2021/06/24 02:57:49;;;;;;;3.45;2.50;;;27.80;54.10;;;;;;5069266;28;20135;-73
2021/06/24 03:00:17;;;;;;;2.70;2.30;;;27.80;54.10;;;;;;5070510;28;20050;-73
2021/06/24 03:02:44;;;;;;;2.50;2.30;;;27.80;54.00;;;;;;5073676;28;20123;-73
2021/06/24 03:05:12;;;;;;;2.58;2.38;;;27.80;54.00;;;;;;5090655;28;20143;-73
2021/06/24 03:07:39;;;;;;;2.08;1.98;;;27.80;54.10;;;;;;5089458;28;20084;-73
2021/06/24 03:10:07;;;;;;;2.03;1.92;;;27.80;54.00;;;;;;5090801;28;20054;-73
2021/06/24 03:12:35;;;;;;;2.25;2.08;;;27.80;54.00;;;;;;5090419;28;20489;-73
2021/06/24 03:15:04;;;;;;;2.55;2.40;;;27.80;54.00;;;;;;5075779;28;20147;-73
2021/06/24 03:17:31;;;;;;;2.00;1.90;;;27.80;54.00;;;;;;5073683;28;20083;-73
2021/06/24 03:19:59;;;;;;;2.38;2.17;;;27.80;54.00;;;;;;5089071;28;20131;-73
2021/06/24 03:22:26;;;;;;;2.30;2.10;;;27.80;54.00;;;;;;5090279;28;20101;-73
2021/06/24 03:24:54;;;;;;;2.90;2.60;;;27.80;54.00;;;;;;5089378;28;20083;-73
2021/06/24 03:27:21;;;;;;;2.25;2.10;;;27.80;54.00;;;;;;5071862;28;20080;-73
2021/06/24 03:29:50;;;;;;;;;;;27.90;54.00;;;;;;5070124;28;20044;-73
2021/06/24 03:32:18;;;;;;;2.60;2.40;;;27.80;53.90;;;;;;5069724;28;20007;-73
2021/06/24 03:34:45;;;;;;;2.20;2.00;;;27.80;53.90;;;;;;5068780;28;20044;-73
2021/06/24 03:37:13;;;;;;;2.70;2.50;;;27.90;53.90;;;;;;5084252;28;20079;-73
2021/06/24 03:39:40;;;;;;;2.50;2.30;;;27.90;53.90;;;;;;5089616;28;20486;-73
2021/06/24 03:42:07;;;;;;;2.63;2.42;;;27.90;53.80;;;;;;5088478;28;20048;-73
2021/06/24 03:44:37;;;;;;;;;;;27.90;53.80;;;;;;5088150;28;20054;-73
2021/06/24 03:47:04;;;;;;;2.30;2.10;;;27.90;53.80;;;;;;5074611;28;20699;-73
2021/06/24 03:49:32;;;;;;;2.35;2.15;;;27.90;53.80;;;;;;5069357;28;20119;-73
2021/06/24 03:51:59;;;;;;;2.38;2.28;;;28.00;53.80;;;;;;5069592;28;20406;-73
2021/06/24 03:54:27;;;;;;;2.13;2.00;;;28.00;53.70;;;;;;5084480;28;20048;-73
2021/06/24 03:56:54;;;;;;;2.58;2.38;;;28.00;53.70;;;;;;5080938;28;20458;-73
2021/06/24 03:59:21;;;;;;;1.98;1.80;;;28.00;53.60;;;;;;5068007;28;20124;-73
2021/06/24 04:01:48;;;;;;;2.50;2.40;;;28.00;53.60;;;;;;5069330;28;20062;-73
2021/06/24 04:04:16;;;;;;;2.65;2.42;;;28.00;53.60;;;;;;5070239;28;20128;-73
2021/06/24 04:06:43;;;;;;;2.30;2.10;;;28.00;53.50;;;;;;5067969;28;20481;-73
2021/06/24 04:09:11;;;;;;;2.10;2.00;;;28.00;53.50;;;;;;5068869;28;20079;-73
2021/06/24 04:11:38;;;;;;;2.22;2.10;;;28.00;53.40;;;;;;5069473;28;20070;-73
2021/06/24 04:14:06;;;;;;;2.42;2.22;;;28.10;53.40;;;;;;5074611;28;20310;-73
2021/06/24 04:16:33;;;;;;;2.58;2.38;;;28.10;53.40;;;;;;5088915;28;20052;-73
2021/06/24 04:19:00;;;;;;;2.30;2.20;;;28.10;53.30;;;;;;5089132;28;20118;-73
2021/06/24 04:21:28;;;;;;;2.25;2.15;;;28.10;53.30;;;;;;5088986;28;20049;-73
2021/06/24 04:23:55;;;;;;;2.10;2.00;;;28.10;53.20;;;;;;5084250;28;20064;-73
2021/06/24 04:26:23;;;;;;;2.58;2.35;;;28.20;53.20;;;;;;5068760;28;20084;-73
2021/06/24 04:28:50;;;;;;;2.72;2.47;;;28.20;53.10;;;;;;5068850;28;20128;-73
2021/06/24 04:31:17;;;;;;;2.13;2.00;;;28.20;53.00;;;;;;5073163;28;20800;-73
2021/06/24 04:33:45;;;;;;;2.55;2.35;;;28.20;52.90;;;;;;5079682;28;20045;-74
2021/06/24 04:36:12;;;;;;;2.35;2.15;;;28.30;52.90;;;;;;5077483;28;20134;-73
2021/06/24 04:38:39;;;;;;;2.40;2.20;;;28.30;52.80;;;;;;5079289;28;20046;-73
2021/06/24 04:41:07;;;;;;;3.22;2.78;;;28.30;52.70;;;;;;5073479;28;20056;-73
2021/06/24 04:43:34;;;;;;;2.40;2.05;;;28.40;52.70;;;;;;5073943;28;20677;-74
2021/06/24 04:46:01;;;;;;;2.33;2.22;;;28.40;52.70;;;;;;5079402;28;20083;-73
2021/06/24 04:48:28;;;;;;;2.10;2.00;;;28.40;52.60;;;;;;5075108;28;20410;-73
2021/06/24 04:50:56;;;;;;;3.70;2.67;;;28.40;52.50;;;;;;5086489;28;20054;-73
2021/06/24 04:53:23;;;;;;;2.40;2.20;;;28.40;52.50;;;;;;5070522;28;20079;-73
2021/06/24 04:55:50;;;;;;;2.30;2.10;;;28.40;52.50;;;;;;5079206;28;20044;-73
2021/06/24 04:58:17;;;;;;;2.97;2.67;;;28.40;52.50;;;;;;5076746;28;20053;-73
2021/06/24 05:00:45;;;;;;;2.47;2.35;;;28.50;52.50;;;;;;5067989;28;20044;-73
2021/06/24 05:03:12;;;;;;;3.30;2.50;;;28.50;52.50;;;;;;5069142;28;20132;-73
2021/06/24 05:05:42;;;;;;;3.42;2.65;;;28.50;52.40;;;;;;5085209;28;20122;-73
2021/06/24 05:08:15;;;;;;;2.63;2.42;;;28.50;52.50;;;;;;5088073;28;20091;-73
2021/06/24 05:10:43;;;;;;;3.42;2.65;;;28.50;52.50;;;;;;5085638;28;20082;-73
2021/06/24 05:13:10;;;;;;;2.60;2.40;;;28.50;52.40;;;;;;5077195;28;20052;-76
2021/06/24 05:15:42;;;;;;;3.42;2.90;;;28.60;52.50;;;;;;5065314;28;20040;-76
2021/06/24 05:18:11;;;;;;;4.00;2.67;;;28.60;52.60;;;;;;5066341;28;20123;-75
2021/06/24 05:20:42;;;;;;;3.35;2.90;;;28.60;52.70;;;;;;5066712;28;20068;-75
2021/06/24 05:23:11;;;;;;;3.45;2.90;;;28.60;52.80;;;;;;5073165;28;20127;-75
2021/06/24 05:25:39;;;;;;;3.97;3.25;;;28.70;52.90;;;;;;5082265;28;20072;-76
2021/06/24 05:28:07;;;;;;;3.47;3.13;;;28.70;52.90;;;;;;5076588;28;20409;-75
2021/06/24 05:30:34;;;;;;;3.60;3.30;;;28.70;52.90;;;;;;5081093;28;20043;-76
2021/06/24 05:33:02;;;;;;;4.53;3.75;;;28.70;52.90;;;;;;5076582;28;20467;-73
2021/06/24 05:35:31;;;;;;;3.88;3.58;;;28.70;53.00;;;;;;5065939;28;21631;-73
2021/06/24 05:37:59;;;;;;;4.72;3.65;;;28.80;52.90;;;;;;5069949;28;20478;-73
2021/06/24 05:40:26;;;;;;;7.00;4.38;;;28.80;53.00;;;;;;5074618;28;20044;-71
2021/06/24 05:42:54;;;;;;;10.82;4.90;;;28.80;53.80;;;;;;5069821;28;20072;-69
2021/06/24 05:45:27;;;;;;;8.27;5.30;;;28.80;54.80;;;;;;5066198;28;20048;-72
2021/06/24 05:47:57;;;;;;;16.95;6.05;;;28.90;54.40;;;;;;5070877;28;20060;-72
2021/06/24 05:50:25;;;;;;;18.00;7.20;;;28.90;54.50;;;;;;5067479;28;20055;-72
2021/06/24 05:52:56;;;;;;;18.08;7.00;;;28.90;54.80;;;;;;5073563;28;20071;-73
2021/06/24 05:58:13;;;;;;;11.23;6.35;;;28.90;55.00;;;;;;5075030;28;20124;-73
2021/06/24 06:00:42;;;;;;;16.10;6.88;;;28.90;55.10;;;;;;5073453;28;20036;-72
2021/06/24 06:03:10;;;;;;;9.43;6.15;;;28.90;55.20;;;;;;5068018;28;20066;-74
2021/06/24 06:05:37;;;;;;;16.33;7.28;;;28.90;55.20;;;;;;5068070;28;20036;-74
2021/06/24 06:08:06;;;;;;;17.45;6.72;;;29.00;55.30;;;;;;5074036;28;20056;-69
2021/06/24 06:10:34;;;;;;;18.50;7.07;;;29.00;55.40;;;;;;5066028;28;20139;-75
2021/06/24 06:13:05;;;;;;;15.40;6.65;;;28.90;55.80;;;;;;5071653;28;20095;-72
2021/06/24 06:15:39;;;;;;;16.00;6.63;;;29.00;56.20;;;;;;5070490;28;20068;-72
2021/06/24 06:18:19;;;;;;;11.55;6.35;;;29.00;57.30;;;;;;5072673;28;20048;-70
2021/06/24 06:20:47;;;;;;;17.40;7.70;;;29.10;56.90;;;;;;5074062;28;20048;-71
2021/06/24 06:23:16;;;;;;;10.57;6.07;;;29.10;56.50;;;;;;5067690;28;20052;-70
2021/06/24 06:25:45;;;;;;;9.55;5.30;;;29.20;56.20;;;;;;5063987;28;20393;-70
2021/06/24 06:28:14;;;;;;;7.70;5.15;;;29.20;55.90;;;;;;5070802;28;20150;-71
2021/06/24 06:30:46;;;;;;;8.02;5.57;;;29.20;55.70;;;;;;5065995;28;20036;-71
2021/06/24 06:33:15;;;;;;;10.15;5.35;;;29.20;55.40;;;;;;5076333;28;20048;-70
2021/06/24 06:35:42;;;;;;;10.25;5.40;;;29.20;55.10;;;;;;5068442;28;20558;-71
2021/06/24 06:38:10;;;;;;;14.77;5.18;;;29.30;54.90;;;;;;5073738;28;20124;-70
2021/06/24 06:40:38;;;;;;;6.47;4.13;;;29.30;54.90;;;;;;5059968;28;20056;-72
2021/06/24 06:43:06;;;;;;;7.78;4.22;;;29.30;54.70;;;;;;5073756;28;20125;-70
2021/06/24 06:45:35;;;;;;;12.88;4.28;;;29.40;54.30;;;;;;5070604;28;20123;-70
2021/06/24 06:48:02;;;;;;;7.93;4.40;;;29.40;54.10;;;;;;5067155;28;20043;-71
2021/06/24 06:50:31;;;;;;;7.93;4.13;;;29.40;53.90;;;;;;5067493;28;20292;-72
2021/06/24 06:52:59;;;;;;;7.07;3.50;;;29.50;53.80;;;;;;5069197;28;20570;-68
2021/06/24 06:55:29;;;;;;;8.00;3.92;;;29.50;54.00;;;;;;5070473;28;20123;-69
2021/06/24 06:57:58;;;;;;;8.77;3.67;;;29.60;54.20;;;;;;5075039;28;20562;-67
2021/06/24 07:00:28;;;;;;;9.70;3.83;;;29.60;54.40;;;;;;5076472;28;20075;-68
2021/06/24 07:02:55;;;;;;;8.35;3.85;;;29.70;54.40;;;;;;5068494;28;20063;-68
2021/06/24 07:05:23;;;;;;;5.35;3.78;;;29.70;54.90;;;;;;5069582;28;20402;-69
2021/06/24 07:07:51;;;;;;;12.43;3.50;;;29.80;54.40;;;;;;5068759;28;20114;-71
2021/06/24 07:10:18;;;;;;;7.85;3.40;;;29.80;54.50;;;;;;5074399;28;20070;-69
2021/06/24 07:12:47;;;;;;;6.40;3.20;;;29.70;54.30;;;;;;5075402;28;20462;-66
2021/06/24 07:15:14;;;;;;;6.63;3.38;;;29.60;54.20;;;;;;5072734;28;20040;-70
2021/06/24 07:17:42;;;;;;;3.45;2.70;;;29.40;54.50;;;;;;5073503;28;20102;-68
2021/06/24 07:20:11;;;;;;;3.83;2.50;;;29.30;55.00;;;;;;5074892;28;20055;-66
2021/06/24 07:22:38;;;;;;;9.57;3.23;;;29.00;55.30;;;;;;5077384;28;20075;-69
2021/06/24 07:25:08;;;;;;;5.25;3.05;;;28.70;55.70;;;;;;5075269;28;20376;-69
2021/06/24 07:27:36;;;;;;;5.70;3.90;;;28.50;56.10;;;;;;5072322;28;20052;-68
2021/06/24 07:30:05;;;;;;;4.60;2.75;;;28.30;56.50;;;;;;5063056;28;20161;-68
2021/06/24 07:32:32;;;;;;;9.00;3.63;;;28.00;56.80;;;;;;5068243;28;20045;-70
2021/06/24 07:34:59;;;;;;;11.80;3.25;;;27.80;57.30;;;;;;5075115;28;20067;-68
2021/06/24 07:37:27;;;;;;;4.13;2.90;;;27.50;57.80;;;;;;5072315;28;20044;-70
2021/06/24 07:39:54;;;;;;;11.77;3.13;;;27.40;58.50;;;;;;5074110;28;20044;-69
2021/06/24 07:42:21;;;;;;;5.43;3.95;;;27.20;58.90;;;;;;5072237;28;20072;-70
2021/06/24 07:44:49;;;;;;;11.43;3.03;;;27.00;59.30;;;;;;5072790;28;20068;-68
2021/06/24 07:47:18;;;;;;;6.50;3.25;;;26.90;59.70;;;;;;5077272;28;20500;-68
2021/06/24 07:49:47;;;;;;;6.43;3.20;;;26.70;60.10;;;;;;5066240;28;20049;-67
2021/06/24 07:52:15;;;;;;;6.72;3.15;;;26.60;60.50;;;;;;5064853;28;20052;-69
2021/06/24 07:54:42;;;;;;;9.40;3.30;;;26.50;60.70;;;;;;5074784;28;20139;-68
2021/06/24 07:57:11;;;;;;;4.53;2.53;;;26.40;61.00;;;;;;5075589;28;20501;-67
2021/06/24 07:59:38;;;;;;;6.53;3.15;;;26.30;61.40;;;;;;5067602;28;20843;-69
2021/06/24 08:02:05;;;;;;;5.43;3.03;;;26.20;61.60;;;;;;5070673;28;20055;-68
2021/06/24 08:04:34;;;;;;;7.60;3.25;;;26.10;61.80;;;;;;5074530;28;20044;-68
2021/06/24 08:07:02;;;;;;;5.45;3.40;;;26.00;62.00;;;;;;5073369;28;20048;-68
2021/06/24 08:09:29;;;;;;;4.68;2.88;;;26.00;62.30;;;;;;5070874;28;20648;-67
2021/06/24 08:11:57;;;;;;;4.10;2.83;;;25.90;62.50;;;;;;5070425;28;20048;-65
2021/06/24 08:14:25;;;;;;;3.72;2.58;;;25.90;62.60;;;;;;5069401;28;20044;-65
2021/06/24 08:17:12;;;;;;;2.47;2.22;;;25.80;62.60;;;;;;5078737;28;20114;-69
2021/06/24 08:19:39;;;;;;;6.80;3.45;;;25.80;62.90;;;;;;5079071;28;20047;-66
2021/06/24 08:22:06;;;;;;;2.92;2.55;;;25.70;63.00;;;;;;5079816;28;20048;-68
2021/06/24 08:24:34;;;;;;;6.03;3.33;;;25.70;63.00;;;;;;5074011;28;20127;-67
2021/06/24 08:27:01;;;;;;;8.73;2.72;;;25.60;63.00;;;;;;5072794;28;20043;-66
2021/06/24 08:29:28;;;;;;;7.57;2.85;;;25.60;63.00;;;;;;5082777;28;20122;-66
2021/06/24 08:31:57;;;;;;;3.65;2.65;;;25.60;63.00;;;;;;5070866;28;20123;-75
2021/06/24 08:34:25;;;;;;;4.57;3.03;;;25.60;63.10;;;;;;5073742;28;20146;-66
2021/06/24 08:36:54;;;;;;;2.80;2.53;;;25.60;63.00;;;;;;5075716;28;20123;-65
2021/06/24 08:39:21;;;;;;;6.30;2.75;;;25.60;63.10;;;;;;5073652;28;20083;-69
2021/06/24 08:41:48;;;;;;;4.53;2.50;;;25.50;63.00;;;;;;5071811;28;20057;-68
2021/06/24 08:44:16;;;;;;;5.53;2.95;;;25.50;63.00;;;;;;5073280;28;20787;-68
2021/06/24 08:46:44;;;;;;;6.95;2.92;;;25.50;63.00;;;;;;5074898;28;20052;-68
2021/06/24 08:49:14;;;;;;;3.92;2.55;;;25.50;63.00;;;;;;5071190;28;20479;-68
2021/06/24 08:51:41;;;;;;;3.95;2.47;;;25.50;63.00;;;;;;5069415;28;20040;-69
2021/06/24 08:54:09;;;;;;;5.20;2.85;;;25.40;63.10;;;;;;5066906;28;20409;-67
2021/06/24 08:56:36;;;;;;;4.93;2.75;;;25.40;62.90;;;;;;5070699;28;20497;-70
2021/06/24 08:59:04;;;;;;;3.95;2.60;;;25.40;62.90;;;;;;5070000;28;20040;-68
2021/06/24 09:01:49;;;;;;;4.18;2.55;;;25.40;62.80;;;;;;5070939;28;20492;-70
2021/06/24 09:04:22;;;;;;;4.88;2.80;;;25.40;62.70;;;;;;5071755;28;20048;-69
2021/06/24 09:06:50;;;;;;;4.95;2.33;;;25.40;62.70;;;;;;5073136;28;20155;-66
2021/06/24 09:09:26;;;;;;;3.90;2.03;;;25.30;62.60;;;;;;5075030;28;20067;-70
2021/06/24 09:12:03;;;;;;;3.00;2.22;;;25.30;62.50;;;;;;5072614;28;20107;-70
2021/06/24 09:14:49;;;;;;;3.25;2.17;;;25.30;62.60;;;;;;5078800;28;20110;-69
2021/06/24 09:17:37;;;;;;;2.78;2.30;;;25.30;62.60;;;;;;5075494;28;22057;-68
2021/06/24 09:20:27;;;;;;;3.22;2.50;;;25.20;62.60;;;;;;5067271;28;20175;-73
2021/06/24 09:23:11;;;;;;;;;;;25.20;62.70;;;;;;5070814;28;20048;-74
2021/06/24 09:25:41;;;;;;;2.28;2.08;;;25.20;62.70;;;;;;5071744;28;20389;-73
2021/06/24 09:28:09;;;;;;;2.85;2.60;;;25.20;62.60;;;;;;5073831;28;20056;-75
2021/06/24 09:30:42;;;;;;;3.03;2.65;;;25.20;62.50;;;;;;5073244;28;20055;-72
2021/06/24 09:33:17;;;;;;;3.72;2.35;;;25.10;62.30;;;;;;5062747;28;20044;-72
2021/06/24 09:35:56;;;;;;;2.63;2.30;;;25.10;62.40;;;;;;5065628;28;20127;-72
2021/06/24 09:38:23;;;;;;;2.92;2.05;;;25.10;62.50;;;;;;5076457;28;20053;-72
2021/06/24 09:40:53;;;;;;;3.90;2.45;;;25.10;62.40;;;;;;5067633;28;20334;-73
2021/06/24 09:43:39;;;;;;;3.33;2.58;;;25.10;62.50;;;;;;5071094;28;20076;-72
2021/06/24 09:46:12;;;;;;;4.25;2.30;;;25.10;62.10;;;;;;5071873;28;20042;-72
2021/06/24 09:48:46;;;;;;;5.60;2.50;;;25.30;61.80;;;;;;5075727;28;20043;-71
2021/06/24 09:51:18;;;;;;;5.60;2.40;;;25.40;61.30;;;;;;5079869;28;20044;-72
2021/06/24 09:53:53;;;;;;;4.93;2.25;;;25.50;60.80;;;;;;5072577;28;20102;-72
2021/06/24 09:56:43;;;;;;;4.88;2.65;;;25.60;60.40;;;;;;5069897;28;20525;-72
2021/06/24 09:59:11;;;;;;;;;;;25.70;60.10;;;;;;5070423;28;20584;-73
2021/06/24 10:01:41;;;;;;;3.67;1.85;;;25.70;59.70;;;;;;5069352;28;20442;-73
2021/06/24 10:04:28;;;;;;;5.55;2.10;;;25.80;59.80;;;;;;5070613;28;20059;-73
2021/06/24 10:06:58;;;;;;;5.72;2.42;;;25.80;59.80;;;;;;5066633;28;20138;-70
2021/06/24 10:09:27;;;;;;;2.95;2.10;;;25.80;59.70;;;;;;5071055;28;20134;-71
2021/06/24 10:11:54;;;;;;;4.28;2.88;;;25.90;59.60;;;;;;5063858;28;20090;-69
2021/06/24 10:14:22;;;;;;;4.20;2.50;;;25.80;59.50;;;;;;5063699;28;20045;-71
2021/06/24 10:16:52;;;;;;;5.18;2.10;;;25.90;59.40;;;;;;5071569;28;20045;-70
2021/06/24 10:19:26;;;;;;;2.30;1.90;;;25.90;59.40;;;;;;5064490;28;20044;-69
2021/06/24 10:22:12;;;;;;;6.47;2.28;;;25.80;59.30;;;;;;5068597;28;20037;-71
2021/06/24 10:25:02;;;;;;;4.07;2.50;;;25.80;59.30;;;;;;5064636;28;20056;-67
2021/06/24 10:27:44;;;;;;;3.40;2.25;;;25.90;59.30;;;;;;5072929;28;20127;-69
2021/06/24 10:30:16;;;;;;;5.53;2.05;;;25.90;59.20;;;;;;5074696;28;20051;-69
2021/06/24 10:32:56;;;;;;;2.90;2.15;;;25.90;58.90;;;;;;5071317;28;20044;-69
2021/06/24 10:35:31;;;;;;;3.47;2.30;;;25.90;58.80;;;;;;5069955;28;20039;-71
2021/06/24 10:37:59;;;;;;;5.28;2.38;;;25.90;58.60;;;;;;5073279;28;20055;-71
2021/06/24 10:40:36;;;;;;;2.38;1.83;;;25.90;58.60;;;;;;5067440;28;20048;-72
2021/06/24 10:43:14;;;;;;;3.10;2.33;;;25.90;58.50;;;;;;5070813;28;20056;-70
2021/06/24 10:45:44;;;;;;;6.60;2.70;;;25.90;58.60;;;;;;5079252;28;20400;-72
2021/06/24 10:48:22;;;;;;;;;;;25.90;58.80;;;;;;5075655;28;20085;-72
2021/06/24 10:51:03;;;;;;;2.33;1.80;;;25.90;58.80;;;;;;5075927;28;19965;-69
2021/06/24 10:53:37;;;;;;;3.55;2.17;;;25.90;58.70;;;;;;5073146;28;20076;-71
2021/06/24 10:56:24;;;;;;;5.18;2.63;;;25.90;58.80;;;;;;5062238;28;20136;-71
2021/06/24 10:58:52;;;;;;;4.03;2.28;;;25.90;58.70;;;;;;5066198;28;20123;-67
2021/06/24 11:01:41;;;;;;;3.42;2.35;;;25.90;58.60;;;;;;5072860;28;20131;-68
2021/06/24 11:04:29;;;;;;;3.30;2.10;;;25.90;58.60;;;;;;5075160;28;20055;-68
2021/06/24 11:06:59;;;;;;;4.45;2.35;;;25.90;58.60;;;;;;5069477;28;20777;-65
2021/06/24 11:09:26;;;;;;;2.45;2.10;;;25.90;58.80;;;;;;5074159;28;20041;-70
2021/06/24 11:11:56;;;;;;;4.95;2.33;;;25.90;58.80;;;;;;5062131;28;20074;-67
2021/06/24 11:14:49;;;;;;;5.60;2.27;;;25.90;58.80;;;;;;5067338;28;20045;-68
2021/06/24 11:17:41;;;;;;;6.68;2.33;;;25.90;58.80;;;;;;5064685;28;20048;-68
2021/06/24 11:20:18;;;;;;;5.50;2.25;;;25.90;58.70;;;;;;5074534;28;20218;-70
2021/06/24 11:22:48;;;;;;;3.63;2.15;;;26.00;58.80;;;;;;5093132;28;20062;-66
2021/06/24 11:25:15;;;;;;;;;;;26.00;59.00;;;;;;5076103;28;20083;-69
2021/06/24 11:27:46;;;;;;;6.00;2.20;;;26.00;58.80;;;;;;5077166;28;19927;-70
2021/06/24 11:30:14;;;;;;;3.42;2.00;;;26.10;58.80;;;;;;5073593;28;20490;-70
2021/06/24 11:32:45;;;;;;;7.25;2.78;;;26.10;58.60;;;;;;5070590;28;20335;-70
2021/06/24 11:35:28;;;;;;;8.05;2.88;;;26.10;58.40;;;;;;5068281;28;20044;-71
2021/06/24 11:38:01;;;;;;;7.30;2.33;;;26.10;58.20;;;;;;5074374;28;20793;-71
2021/06/24 11:40:29;;;;;;;6.05;2.33;;;26.10;58.50;;;;;;5076951;28;20047;-71
2021/06/24 11:42:57;;;;;;;4.65;2.00;;;26.10;58.40;;;;;;5069497;28;20037;-70
2021/06/24 11:45:26;;;;;;;7.75;2.38;;;26.10;58.30;;;;;;5072069;28;20040;-68
2021/06/24 11:47:57;;;;;;;4.88;2.55;;;26.10;58.40;;;;;;5074167;28;20053;-69
2021/06/24 12:03:03;;;;;;;6.65;2.63;;;26.10;58.60;;;;;;5075625;28;20127;-68
2021/06/24 12:04:32;;;;;;;4.18;2.50;;;26.10;58.60;;;;;;5071988;28;20067;-68
2021/06/24 12:07:09;;;;;;;5.37;2.37;;;26.10;58.40;;;;;;5068659;28;20076;-68
2021/06/24 12:09:48;;;;;;;3.75;2.20;;;26.10;58.40;;;;;;5075442;28;20048;-68
2021/06/24 12:12:21;;;;;;;3.55;2.08;;;26.10;58.60;;;;;;5073014;28;20054;-68
2021/06/24 12:14:52;;;;;;;3.92;2.35;;;26.10;58.70;;;;;;5070190;28;20059;-68
2021/06/24 12:17:25;;;;;;;3.20;2.40;;;26.00;58.60;;;;;;5074277;28;20076;-68
2021/06/24 12:20:09;;;;;;;5.10;1.83;;;26.00;58.80;;;;;;5078972;28;20052;-68
2021/06/24 12:23:02;;;;;;;3.35;2.08;;;25.90;58.80;;;;;;5072851;28;20102;-66
2021/06/24 12:25:36;;;;;;;3.13;2.28;;;26.00;58.90;;;;;;5077466;28;20138;-66
2021/06/24 12:28:06;;;;;;;6.75;2.00;;;26.00;58.90;;;;;;5075706;28;20100;-71
2021/06/24 12:30:37;;;;;;;5.18;2.58;;;26.10;58.90;;;;;;5075216;28;20436;-70
2021/06/24 12:33:09;;;;;;;3.50;2.33;;;26.10;58.80;;;;;;5075437;28;20101;-66
2021/06/24 12:35:41;;;;;;;3.80;2.22;;;26.20;58.80;;;;;;5071354;28;20082;-66
2021/06/24 12:38:14;;;;;;;6.15;2.45;;;26.20;58.70;;;;;;5075643;28;20040;-64
2021/06/24 12:40:49;;;;;;;6.55;2.78;;;26.20;58.70;;;;;;5072504;28;20048;-68
2021/06/24 12:43:22;;;;;;;3.75;2.30;;;26.20;58.70;;;;;;5071251;28;20068;-70
2021/06/24 12:45:52;;;;;;;4.57;2.08;;;26.20;58.70;;;;;;5073613;28;20052;-70
2021/06/24 12:48:33;;;;;;;4.20;2.30;;;26.20;58.70;;;;;;5072449;28;20067;-65
2021/06/24 12:51:07;;;;;;;4.18;2.60;;;26.20;58.70;;;;;;5065470;28;21901;-70
2021/06/24 12:53:41;;;;;;;3.30;2.13;;;26.10;58.80;;;;;;5065570;28;20136;-68
2021/06/24 12:56:30;;;;;;;3.20;2.03;;;26.10;59.10;;;;;;5072504;28;20485;-65
2021/06/24 12:59:14;;;;;;;4.90;2.22;;;26.10;58.80;;;;;;5075018;28;20127;-71
2021/06/24 13:01:43;;;;;;;7.40;2.63;;;26.20;58.80;;;;;;5071148;28;20040;-67
2021/06/24 13:04:16;;;;;;;4.32;2.35;;;26.20;58.80;;;;;;5067698;28;20543;-69
2021/06/24 13:06:45;;;;;;;5.25;2.63;;;26.20;58.80;;;;;;5070292;28;20051;-65
2021/06/24 13:09:15;;;;;;;3.03;1.88;;;26.20;58.70;;;;;;5066474;28;20153;-65
2021/06/24 13:11:53;;;;;;;4.47;2.33;;;26.10;58.60;;;;;;5071820;28;20806;-65
2021/06/24 13:14:25;;;;;;;5.35;2.53;;;26.10;58.70;;;;;;5073356;28;20520;-65
2021/06/24 13:16:57;;;;;;;3.58;2.00;;;26.10;58.70;;;;;;5073060;28;20076;-63
2021/06/24 13:19:35;;;;;;;4.13;1.98;;;26.10;58.80;;;;;;5071667;28;20066;-65